Time;durP1;ratioP1;P1;durP2;ratioP2;P2;SDS_P1;SDS_P2;PMS_P1;PMS_P2;Temp;Humidity;BMP_temperature;BMP_pressure;BME280_temperature;BME280_humidity;BME280_pressure;Samples;Min_cycle;Max_cycle;Signal;HPM_P1;HPM_P2
2022/10/18 00:02:05;;;;;;;43.60;28.63;;;;;;;15.79;87.80;101421.13;10467605;28;20090;-80
2022/10/18 00:07:07;;;;;;;44.75;30.20;;;;;;;15.76;87.86;101428.66;10467805;28;20652;-81
2022/10/18 00:12:10;;;;;;;47.72;29.25;;;;;;;15.79;87.23;101429.25;10469921;28;20071;-80
2022/10/18 00:17:14;;;;;;;38.97;27.35;;;;;;;15.75;87.53;101429.66;10469832;28;20072;-82
2022/10/18 00:22:17;;;;;;;41.17;27.48;;;;;;;15.78;87.69;101426.69;10469997;28;20071;-80
2022/10/18 00:27:20;;;;;;;47.88;28.25;;;;;;;15.75;87.55;101426.97;10467190;28;20647;-82
2022/10/18 00:32:25;;;;;;;48.42;29.38;;;;;;;15.73;87.31;101443.34;10450043;28;20072;-80
2022/10/18 00:37:28;;;;;;;43.00;28.10;;;;;;;15.73;87.35;101439.78;10468528;28;20545;-80
2022/10/18 00:42:33;;;;;;;48.80;29.30;;;;;;;15.70;87.31;101446.31;10467989;28;20700;-80
2022/10/18 00:47:38;;;;;;;47.20;30.80;;;;;;;15.73;87.47;101439.78;10467681;28;20140;-82
2022/10/18 00:52:44;;;;;;;40.47;27.90;;;;;;;15.75;87.35;101438.66;10467917;28;20076;-81
2022/10/18 00:57:47;;;;;;;47.90;29.52;;;;;;;15.81;87.44;101426.41;10468333;28;20048;-80
2022/10/18 01:02:52;;;;;;;43.75;29.15;;;;;;;15.90;87.69;101423.75;10449912;28;20053;-80
2022/10/18 01:08:08;;;;;;;45.05;28.77;;;;;;;15.93;87.88;101423.50;10425551;28;20045;-80
2022/10/18 01:13:25;;;;;;;50.83;30.08;;;;;;;15.94;87.67;101410.81;10467670;28;20119;-81
2022/10/18 01:18:35;;;;;;;47.70;30.33;;;;;;;15.92;87.41;101410.94;10467018;28;20079;-82
2022/10/18 01:24:09;;;;;;;44.45;27.67;;;;;;;15.90;87.42;101406.63;10466996;28;20076;-81
2022/10/18 01:29:23;;;;;;;45.65;27.05;;;;;;;15.86;87.69;101405.22;10465428;28;20068;-80
2022/10/18 01:34:32;;;;;;;50.95;29.92;;;;;;;15.86;87.74;101403.34;10448528;28;20080;-81
2022/10/18 01:39:41;;;;;;;48.03;29.83;;;;;;;15.84;88.01;101397.19;10457306;28;20049;-80
2022/10/18 01:44:45;;;;;;;48.00;29.55;;;;;;;15.81;87.96;101388.50;10462887;28;20064;-80
2022/10/18 01:49:50;;;;;;;51.28;31.38;;;;;;;15.81;87.87;101388.50;10467521;28;20045;-81
2022/10/18 01:54:55;;;;;;;51.45;32.17;;;;;;;15.82;87.73;101384.78;10478465;28;20036;-79
2022/10/18 02:00:02;;;;;;;51.65;30.25;;;;;;;15.83;87.52;101386.53;10466613;28;20053;-80
2022/10/18 02:05:21;;;;;;;52.42;32.30;;;;;;;15.84;87.56;101386.38;10477162;28;20069;-82
2022/10/18 02:10:31;;;;;;;50.28;30.77;;;;;;;15.85;87.54;101381.78;10463881;28;20076;-81
2022/10/18 02:15:37;;;;;;;51.20;30.10;;;;;;;15.86;87.71;101389.81;10474626;28;20045;-81
2022/10/18 02:20:42;;;;;;;41.63;28.05;;;;;;;15.86;87.93;101380.81;10473065;28;20048;-81
2022/10/18 02:25:45;;;;;;;44.20;29.73;;;;;;;15.85;87.68;101400.75;10473712;28;20056;-83
2022/10/18 02:30:57;;;;;;;47.22;30.45;;;;;;;15.85;87.59;101395.34;10477809;28;20045;-83
2022/10/18 02:36:05;;;;;;;45.15;30.02;;;;;;;15.84;87.54;101371.97;10480816;28;20136;-82
2022/10/18 02:41:08;;;;;;;48.22;30.70;;;;;;;15.80;87.72;101386.78;10475841;28;20045;-82
2022/10/18 02:46:11;;;;;;;49.35;31.45;;;;;;;15.81;87.75;101383.06;10458613;28;20057;-81
2022/10/18 02:51:15;;;;;;;53.40;33.42;;;;;;;15.79;87.46;101385.06;10470081;28;20574;-80
2022/10/18 02:56:18;;;;;;;55.20;33.08;;;;;;;15.77;87.38;101384.31;10453298;28;20470;-82
2022/10/18 03:01:21;;;;;;;49.55;31.73;;;;;;;15.75;87.76;101378.19;10460916;28;20048;-81
2022/10/18 03:06:25;;;;;;;50.20;30.00;;;;;;;15.78;87.58;101380.63;10475516;28;20041;-82
2022/10/18 03:11:28;;;;;;;50.15;30.77;;;;;;;15.76;87.47;101364.50;10474009;28;20068;-81
2022/10/18 03:16:31;;;;;;;53.85;31.75;;;;;;;15.78;87.66;101370.66;10474309;28;20528;-82
2022/10/18 03:21:35;;;;;;;54.50;32.30;;;;;;;15.78;87.46;101367.09;10474662;28;20049;-82
2022/10/18 03:26:38;;;;;;;49.78;31.30;;;;;;;15.74;87.25;101357.50;10474872;28;20494;-80
2022/10/18 03:31:40;;;;;;;56.67;32.95;;;;;;;15.68;87.28;101350.78;10478159;28;20052;-80
2022/10/18 03:36:45;;;;;;;50.40;31.05;;;;;;;15.63;86.99;101353.03;10500991;28;20045;-81
2022/10/18 03:41:47;;;;;;;47.03;29.35;;;;;;;15.58;87.47;101358.88;10482179;28;20055;-80
2022/10/18 03:46:50;;;;;;;56.10;33.20;;;;;;;15.57;87.63;101358.97;10466184;28;20037;-80
2022/10/18 03:51:54;;;;;;;59.03;34.40;;;;;;;15.60;87.31;101358.72;10464962;28;20120;-80
2022/10/18 03:56:58;;;;;;;59.08;33.85;;;;;;;15.57;87.24;101361.69;10468930;28;20104;-80
2022/10/18 04:02:00;;;;;;;54.60;33.75;;;;;;;15.50;87.29;101349.69;10475380;28;20401;-80
2022/10/18 04:07:05;;;;;;;56.72;33.75;;;;;;;15.41;86.96;101367.56;10469908;28;20033;-80
2022/10/18 04:12:08;;;;;;;60.80;33.75;;;;;;;15.29;87.42;101361.34;10469702;28;20064;-81
2022/10/18 04:17:11;;;;;;;91.47;32.92;;;;;;;15.08;88.29;101353.19;10453109;28;20134;-82
2022/10/18 04:22:15;;;;;;;61.83;34.78;;;;;;;15.30;87.98;101364.91;10470148;28;20053;-80
2022/10/18 04:27:18;;;;;;;55.00;30.88;;;;;;;15.21;87.17;101359.28;10478525;23;20455;-80
2022/10/18 04:32:20;;;;;;;57.30;31.17;;;;;;;15.07;87.13;101372.28;10464773;28;20037;-81
2022/10/18 04:37:25;;;;;;;52.47;28.83;;;;;;;15.10;87.11;101361.19;10495531;28;20109;-81
2022/10/18 04:42:27;;;;;;;54.63;31.63;;;;;;;15.03;87.30;101360.88;10507138;28;20044;-81
2022/10/18 04:47:31;;;;;;;50.72;30.63;;;;;;;14.78;88.35;101365.63;10517942;28;20063;-82
2022/10/18 04:52:36;;;;;;;55.47;31.40;;;;;;;14.95;87.98;101366.06;10489705;28;20074;-80
2022/10/18 04:57:38;;;;;;;56.85;32.08;;;;;;;15.04;87.73;101367.97;10505153;28;20048;-81
2022/10/18 05:02:41;;;;;;;50.17;29.02;;;;;;;15.04;87.65;101367.97;10507524;28;20115;-80
2022/10/18 05:07:45;;;;;;;49.55;26.85;;;;;;;15.03;87.57;101369.84;10523363;28;20048;-80
2022/10/18 05:12:48;;;;;;;49.40;29.45;;;;;;;15.01;87.80;101371.81;10518750;28;20055;-82
2022/10/18 05:17:51;;;;;;;45.63;29.10;;;;;;;15.04;87.71;101371.53;10509490;28;20060;-81
2022/10/18 05:22:55;;;;;;;61.30;32.55;;;;;;;15.00;87.70;101377.34;10510319;28;20068;-81
2022/10/18 05:27:58;;;;;;;53.42;30.52;;;;;;;14.98;87.90;101388.31;10509589;28;20048;-81
2022/10/18 05:33:12;;;;;;;52.55;31.00;;;;;;;14.95;88.40;101380.44;10508677;28;20118;-80
2022/10/18 05:38:16;;;;;;;54.17;29.65;;;;;;;14.91;88.35;101381.66;10507677;28;20037;-81
2022/10/18 05:43:19;;;;;;;51.30;29.67;;;;;;;14.92;88.76;101379.81;10509505;28;20045;-81
2022/10/18 05:48:22;;;;;;;55.63;30.65;;;;;;;14.91;88.61;101373.56;10507378;28;20044;-80
2022/10/18 05:53:27;;;;;;;55.00;31.15;;;;;;;14.92;88.70;101379.81;10496837;28;20481;-81
2022/10/18 05:58:40;;;;;;;65.60;34.63;;;;;;;14.95;88.29;101385.84;10503962;28;20041;-82
2022/10/18 06:03:42;;;;;;;57.63;31.27;;;;;;;14.97;88.37;101385.72;10508667;28;20063;-79
2022/10/18 06:08:49;;;;;;;59.53;31.17;;;;;;;15.00;88.23;101382.75;10529163;28;20049;-80
2022/10/18 06:13:52;;;;;;;55.22;30.88;;;;;;;14.99;87.88;101395.41;10523625;28;20080;-81
2022/10/18 06:18:58;;;;;;;66.35;34.03;;;;;;;15.00;87.95;101404.38;10542349;28;20048;-81
2022/10/18 06:24:02;;;;;;;64.38;33.08;;;;;;;15.02;87.68;101402.41;10539890;28;20048;-80
2022/10/18 06:29:05;;;;;;;61.70;31.67;;;;;;;14.93;88.33;101414.03;10508102;28;20561;-80
2022/10/18 06:34:08;;;;;;;59.47;31.42;;;;;;;14.95;88.38;101417.47;10513337;28;20577;-81
2022/10/18 06:39:12;;;;;;;59.22;30.95;;;;;;;15.04;87.82;101413.97;10505629;28;20080;-81
2022/10/18 06:44:16;;;;;;;56.40;30.77;;;;;;;15.03;87.62;101423.09;10508880;28;20219;-80
2022/10/18 06:49:19;;;;;;;52.95;28.15;;;;;;;14.98;87.77;101420.75;10511866;28;20068;-84
2022/10/18 06:54:24;;;;;;;64.85;31.35;;;;;;;15.02;87.56;101426.78;10498086;28;21090;-81
2022/10/18 06:59:26;;;;;;;41.22;23.67;;;;;;;15.07;87.71;101426.41;10466342;28;21212;-81
2022/10/18 07:04:33;;;;;;;54.58;28.90;;;;;;;15.20;87.40;101429.78;10472135;28;20051;-81
2022/10/18 07:09:37;;;;;;;45.60;26.17;;;;;;;15.24;87.25;101431.25;10463115;28;20366;-81
2022/10/18 07:14:40;;;;;;;42.17;23.40;;;;;;;15.35;87.22;101444.75;10469087;28;20101;-81
2022/10/18 07:19:43;;;;;;;37.20;21.85;;;;;;;15.44;87.37;101445.81;10459992;28;20048;-79
2022/10/18 07:24:47;;;;;;;55.97;29.58;;;;;;;15.39;87.40;101439.97;10469916;28;20505;-78
2022/10/18 07:29:50;;;;;;;54.92;29.33;;;;;;;15.27;87.21;101453.47;10464674;28;20190;-79
2022/10/18 07:34:53;;;;;;;58.53;30.98;;;;;;;15.09;87.47;101455.03;10467884;28;20432;-80
2022/10/18 07:39:57;;;;;;;44.63;24.13;;;;;;;15.12;88.29;101452.09;10461329;28;20095;-79
2022/10/18 07:45:00;;;;;;;59.60;29.38;;;;;;;15.12;88.56;101462.91;10468414;28;20501;-79
2022/10/18 07:50:03;;;;;;;58.20;28.92;;;;;;;15.10;88.83;101470.28;10461504;28;20056;-79
2022/10/18 07:55:07;;;;;;;50.30;26.08;;;;;;;15.23;89.36;101475.53;10462053;28;20041;-79
2022/10/18 08:00:11;;;;;;;54.35;26.52;;;;;;;15.25;89.48;101479.00;10454905;28;20060;-79
2022/10/18 08:05:14;;;;;;;60.80;28.98;;;;;;;15.12;89.31;101486.41;10465261;28;20066;-78
2022/10/18 08:10:19;;;;;;;60.17;28.55;;;;;;;14.94;89.30;101492.34;10452489;28;20067;-79
2022/10/18 08:15:23;;;;;;;61.58;30.50;;;;;;;14.98;89.50;101484.84;10468712;28;20135;-78
2022/10/18 08:20:26;;;;;;;69.60;32.15;;;;;;;14.97;89.81;101492.06;10464387;28;20226;-78
2022/10/18 08:25:34;;;;;;;73.30;33.70;;;;;;;15.07;89.79;101496.75;10460647;28;20067;-79
2022/10/18 08:30:42;;;;;;;73.72;32.30;;;;;;;15.12;89.52;101499.94;10460504;28;20044;-81
2022/10/18 08:35:54;;;;;;;82.53;40.05;;;;;;;15.15;90.16;101478.88;10466189;28;20055;-79
2022/10/18 08:41:00;;;;;;;80.85;35.38;;;;;;;15.23;89.45;101491.78;10471286;28;20052;-79
2022/10/18 08:46:04;;;;;;;69.18;33.25;;;;;;;15.34;89.40;101496.31;10487866;28;20068;-79
2022/10/18 08:51:16;;;;;;;73.55;34.00;;;;;;;15.33;89.87;101494.56;10487083;28;20051;-81
2022/10/18 08:56:23;;;;;;;;;;;;;;;15.56;90.77;101504.38;10476740;28;20052;-80
2022/10/18 09:01:39;;;;;;;68.72;34.17;;;;;;;15.75;89.66;101502.81;10473197;28;19979;-80
2022/10/18 09:06:55;;;;;;;68.15;32.90;;;;;;;16.05;88.65;101507.44;10472777;28;20049;-81
2022/10/18 09:12:09;;;;;;;59.58;30.90;;;;;;;15.83;87.39;101521.97;10480081;28;20098;-78
2022/10/18 09:17:24;;;;;;;56.30;30.15;;;;;;;15.86;86.82;101510.88;10470997;28;20052;-79
2022/10/18 09:22:39;;;;;;;56.78;28.27;;;;;;;15.97;85.70;101516.22;10459644;28;20052;-80
2022/10/18 09:27:51;;;;;;;58.63;30.20;;;;;;;16.05;85.06;101523.69;10458767;28;20429;-79
2022/10/18 09:33:02;;;;;;;54.92;28.23;;;;;;;15.87;84.90;101531.53;10455079;28;20056;-81
2022/10/18 09:38:10;;;;;;;53.08;29.20;;;;;;;16.09;85.87;101525.13;10454719;28;20129;-79
2022/10/18 09:43:20;;;;;;;57.75;29.92;;;;;;;16.14;85.01;101526.47;10447188;28;20048;-80
2022/10/18 09:48:27;;;;;;;53.08;29.33;;;;;;;16.34;85.71;101540.16;10443388;28;21888;-79
2022/10/18 09:53:38;;;;;;;52.13;28.70;;;;;;;16.21;85.37;101542.19;10454702;28;20459;-80
2022/10/18 09:58:45;;;;;;;51.95;27.40;;;;;;;15.93;85.33;101531.00;10458094;28;20062;-81
2022/10/18 10:03:48;;;;;;;61.05;30.05;;;;;;;16.15;86.79;101547.16;10458522;28;20054;-80
2022/10/18 10:08:57;;;;;;;52.95;28.83;;;;;;;16.36;87.16;101552.59;10451196;28;20049;-80
2022/10/18 10:14:12;;;;;;;50.50;27.20;;;;;;;16.50;87.02;101545.97;10457436;28;20414;-81
2022/10/18 10:19:17;;;;;;;46.38;24.35;;;;;;;16.59;86.86;101536.13;10453718;28;20063;-81
2022/10/18 10:24:34;;;;;;;48.17;26.40;;;;;;;16.50;86.58;101534.25;10454799;28;20094;-80
2022/10/18 10:29:50;;;;;;;46.60;24.20;;;;;;;16.73;86.40;101551.19;10453425;28;20358;-81
2022/10/18 10:34:53;;;;;;;45.83;23.85;;;;;;;16.83;84.00;101556.66;10459419;28;20706;-82
2022/10/18 10:40:09;;;;;;;42.92;23.27;;;;;;;16.97;81.22;101554.44;10458366;28;20063;-80
2022/10/18 10:45:24;;;;;;;39.58;23.75;;;;;;;17.34;77.59;101550.28;10462469;28;20058;-80
2022/10/18 10:50:29;;;;;;;44.83;23.83;;;;;;;16.94;76.70;101549.28;10460878;28;20052;-79
2022/10/18 10:55:36;;;;;;;35.42;22.35;;;;;;;16.72;77.45;101554.91;10464487;28;20055;-80
2022/10/18 11:00:43;;;;;;;28.85;16.02;;;;;;;17.18;73.61;101554.38;10487156;28;20131;-79
2022/10/18 11:05:48;;;;;;;29.33;14.25;;;;;;;17.89;76.54;101550.59;10476102;28;20086;-81
2022/10/18 11:11:00;;;;;;;25.83;12.57;;;;;;;17.85;70.44;101558.19;10474490;28;20211;-81
2022/10/18 11:16:11;;;;;;;29.70;13.50;;;;;;;18.75;69.93;101545.09;10476045;28;20052;-80
2022/10/18 11:21:17;;;;;;;27.58;12.88;;;;;;;21.43;59.01;101552.06;10474799;28;20060;-82
2022/10/18 11:26:46;;;;;;;21.70;12.25;;;;;;;21.28;61.32;101549.09;10495886;28;20072;-80
2022/10/18 11:32:06;;;;;;;23.63;11.43;;;;;;;22.40;58.56;101533.94;10483518;28;20102;-80
2022/10/18 11:37:20;;;;;;;22.27;11.73;;;;;;;23.57;52.15;101542.38;10460599;28;20214;-80
2022/10/18 11:42:49;;;;;;;19.60;10.98;;;;;;;23.88;51.90;101520.38;10467205;28;20056;-80
2022/10/18 11:48:02;;;;;;;18.95;9.57;;;;;;;23.92;50.56;101523.63;10463103;28;20058;-80
2022/10/18 11:53:13;;;;;;;20.33;10.68;;;;;;;24.41;47.82;101515.78;10466124;28;20394;-81
2022/10/18 11:58:35;;;;;;;16.40;12.23;;;;;;;24.59;48.22;101514.53;10463874;28;20053;-81
2022/10/18 12:03:49;;;;;;;18.90;11.10;;;;;;;24.75;46.46;101525.31;10461691;28;20041;-80
2022/10/18 12:08:58;;;;;;;18.65;10.35;;;;;;;23.43;50.46;101520.19;10458796;28;20693;-82
2022/10/18 12:14:03;;;;;;;15.75;9.98;;;;;;;23.26;50.54;101520.44;10456685;28;20049;-82
2022/10/18 12:19:13;;;;;;;15.40;9.93;;;;;;;22.32;52.24;101507.47;10459878;28;20059;-81
2022/10/18 12:24:21;;;;;;;16.98;9.38;;;;;;;19.60;58.97;101526.72;10459193;28;20055;-80
2022/10/18 12:29:29;;;;;;;16.90;8.80;;;;;;;20.67;56.57;101517.44;10452608;28;20048;-81
2022/10/18 12:34:41;;;;;;;16.88;8.98;;;;;;;21.73;53.90;101515.00;10458533;28;20527;-81
2022/10/18 12:39:49;;;;;;;15.25;7.18;;;;;;;21.34;53.92;101518.38;10457830;28;20040;-80
2022/10/18 12:45:23;;;;;;;20.58;7.88;;;;;;;24.11;46.61;101498.38;10461892;28;20051;-82
2022/10/18 12:50:35;;;;;;;10.57;6.43;;;;;;;23.72;46.60;101509.50;10461222;28;20098;-82
2022/10/18 12:55:40;;;;;;;13.30;5.55;;;;;;;24.86;44.05;101493.75;10462615;28;20066;-82
2022/10/18 13:00:53;;;;;;;16.98;5.55;;;;;;;25.97;40.16;101491.53;10461537;28;20044;-81
2022/10/18 13:05:59;;;;;;;10.40;5.28;;;;;;;24.43;43.07;101497.19;10457525;28;20058;-81
2022/10/18 13:11:28;;;;;;;13.38;4.00;;;;;;;24.24;41.45;101489.47;10455074;28;20058;-82
2022/10/18 13:16:39;;;;;;;9.60;3.22;;;;;;;23.41;42.37;101508.53;10460078;28;20055;-83
2022/10/18 13:21:51;;;;;;;10.48;3.33;;;;;;;23.44;42.73;101510.91;10458978;28;20540;-82
2022/10/18 13:27:18;;;;;;;9.68;3.50;;;;;;;23.09;43.93;101495.88;10459025;28;20483;-82
2022/10/18 13:32:52;;;;;;;6.70;2.60;;;;;;;22.57;41.89;101504.66;10459752;28;20056;-81
2022/10/18 13:37:59;;;;;;;7.22;2.75;;;;;;;22.90;40.25;101510.00;10456697;28;20056;-79
2022/10/18 13:44:10;;;;;;;10.57;2.60;;;;;;;23.24;38.51;101517.06;10497274;28;20079;-80
2022/10/18 13:49:31;;;;;;;5.28;2.95;;;;;;;20.42;42.43;101519.19;10465377;28;20056;-82
2022/10/18 13:55:01;;;;;;;7.70;3.17;;;;;;;21.88;40.87;101521.50;10455599;28;20055;-82
2022/10/18 14:00:18;;;;;;;8.15;2.65;;;;;;;22.15;39.88;101524.91;10463470;28;20052;-82
2022/10/18 14:05:37;;;;;;;5.53;2.28;;;;;;;22.41;39.53;101523.88;10449774;28;20045;-81
2022/10/18 14:10:50;;;;;;;8.70;3.58;;;;;;;23.11;39.20;101523.13;10464840;28;20059;-81
2022/10/18 14:16:10;;;;;;;6.53;2.33;;;;;;;23.13;39.32;101523.81;10457730;28;20045;-80
2022/10/18 14:21:22;;;;;;;6.10;2.47;;;;;;;23.63;39.08;101533.41;10461436;28;20063;-80
2022/10/18 14:26:33;;;;;;;4.70;2.20;;;;;;;22.80;40.37;101526.66;10464581;28;20046;-81
2022/10/18 14:31:36;;;;;;;6.80;2.75;;;;;;;22.92;40.11;101524.38;10469812;28;20048;-80
2022/10/18 14:36:41;;;;;;;9.63;2.80;;;;;;;21.75;41.46;101537.59;10468914;28;20071;-80
2022/10/18 14:41:50;;;;;;;5.45;1.70;;;;;;;21.51;42.23;101535.66;10466631;28;20681;-81
2022/10/18 14:46:59;;;;;;;8.63;2.95;;;;;;;21.18;42.41;101538.31;10460377;28;20048;-81
2022/10/18 14:52:02;;;;;;;10.43;2.78;;;;;;;21.64;42.12;101536.03;10469106;28;20072;-80
2022/10/18 14:57:07;;;;;;;6.05;2.08;;;;;;;21.70;41.85;101528.16;10462714;28;20058;-80
2022/10/18 15:02:13;;;;;;;7.95;2.15;;;;;;;22.12;39.85;101530.75;10460789;28;20040;-81
2022/10/18 15:07:18;;;;;;;3.78;1.70;;;;;;;22.30;40.62;101528.66;10471681;28;20055;-82
2022/10/18 15:12:22;;;;;;;3.22;1.40;;;;;;;21.31;40.41;101536.97;10476317;28;20052;-81
2022/10/18 15:17:27;;;;;;;5.13;1.38;;;;;;;20.84;40.81;101541.06;10468276;28;20098;-78
2022/10/18 15:22:31;;;;;;;5.97;1.60;;;;;;;20.22;41.93;101545.81;10468755;28;20041;-82
2022/10/18 15:27:38;;;;;;;11.90;1.42;;;;;;;20.18;42.50;101545.25;10476196;28;20129;-82
2022/10/18 15:32:48;;;;;;;6.25;1.45;;;;;;;19.32;43.30;101545.81;10470208;28;20405;-83
2022/10/18 15:37:51;;;;;;;6.78;0.98;;;;;;;17.98;45.39;101541.59;10466420;28;20056;-78
2022/10/18 15:42:57;;;;;;;5.00;0.88;;;;;;;18.36;46.35;101546.09;10464018;28;20052;-79
2022/10/18 15:48:15;;;;;;;5.47;1.45;;;;;;;18.07;47.36;101548.00;10460261;28;20055;-77
2022/10/18 15:53:48;;;;;;;5.18;1.33;;;;;;;;;;10463609;28;20045;-79
2022/10/18 15:58:52;;;;;;;;;;;;;;;18.30;46.42;101548.56;10388092;28;20049;-80
2022/10/18 16:03:56;;;;;;;4.88;1.50;;;;;;;18.12;48.04;101543.84;10469073;28;20409;-80
2022/10/18 16:08:59;;;;;;;3.63;0.88;;;;;;;17.97;47.84;101556.19;10463785;28;20063;-81
2022/10/18 16:14:03;;;;;;;9.75;1.95;;;;;;;17.57;48.77;101554.44;10465948;28;20052;-79
2022/10/18 16:19:06;;;;;;;4.40;1.40;;;;;;;16.89;50.34;101556.97;10482101;28;20404;-77
2022/10/18 16:24:12;;;;;;;5.47;1.35;;;;;;;16.55;51.94;101568.13;10464453;28;20516;-79
2022/10/18 16:29:18;;;;;;;6.68;1.63;;;;;;;16.32;53.03;101575.56;10476392;28;20051;-79
2022/10/18 16:34:21;;;;;;;5.00;1.20;;;;;;;16.02;53.89;101580.88;10483537;28;20420;-79
2022/10/18 16:39:24;;;;;;;6.60;1.70;;;;;;;15.79;54.80;101575.53;10464175;28;20702;-79
2022/10/18 16:44:28;;;;;;;5.97;1.65;;;;;;;15.65;55.50;101578.56;10466273;28;20109;-80
2022/10/18 16:49:31;;;;;;;4.25;1.85;;;;;;;15.56;55.73;101580.19;10467212;28;20231;-79
2022/10/18 16:54:34;;;;;;;6.80;2.65;;;;;;;15.34;57.46;101585.66;10469594;28;20077;-80
2022/10/18 16:59:38;;;;;;;7.30;3.17;;;;;;;15.14;57.90;101593.56;10465646;28;20120;-78
2022/10/18 17:04:41;;;;;;;5.88;2.35;;;;;;;14.98;58.39;101607.47;10453961;28;20076;-79
2022/10/18 17:09:44;;;;;;;5.07;2.60;;;;;;;14.93;58.35;101603.41;10466476;28;20048;-78
2022/10/18 17:14:48;;;;;;;4.60;2.42;;;;;;;14.82;58.59;101597.00;10462347;28;20040;-79
2022/10/18 17:19:51;;;;;;;4.88;2.40;;;;;;;14.67;59.51;101602.75;10463749;28;20490;-78
2022/10/18 17:24:54;;;;;;;5.45;2.35;;;;;;;14.53;60.29;101622.78;10479781;28;20051;-78
2022/10/18 17:29:58;;;;;;;6.70;2.13;;;;;;;14.38;60.55;101638.34;10488374;28;20052;-79
2022/10/18 17:35:01;;;;;;;7.35;2.70;;;;;;;14.24;60.57;101636.69;10489999;28;20063;-81
2022/10/18 17:40:05;;;;;;;5.03;2.33;;;;;;;14.25;60.15;101641.09;10486332;28;20171;-79
2022/10/18 17:45:11;;;;;;;12.95;2.22;;;;;;;14.15;60.47;101657.19;10484989;28;20052;-79
2022/10/18 17:50:16;;;;;;;4.95;2.45;;;;;;;14.03;61.46;101659.94;10482383;28;20048;-78
2022/10/18 17:55:20;;;;;;;8.63;3.28;;;;;;;13.92;61.63;101660.75;10488416;28;20048;-78
2022/10/18 18:00:24;;;;;;;7.45;2.55;;;;;;;13.74;62.22;101646.81;10472422;28;20048;-78
2022/10/18 18:05:31;;;;;;;8.60;4.60;;;;;;;13.61;62.53;101654.09;10505980;28;20053;-77
2022/10/18 18:10:36;;;;;;;8.68;5.57;;;;;;;13.39;62.96;101654.81;10510045;28;20052;-77
2022/10/18 18:15:41;;;;;;;11.70;2.88;;;;;;;13.26;63.38;101665.56;10475595;28;20051;-79
2022/10/18 18:20:50;;;;;;;9.45;2.63;;;;;;;13.13;63.68;101667.44;10478000;28;20234;-77
2022/10/18 18:25:57;;;;;;;5.10;2.35;;;;;;;12.98;63.66;101664.88;10490653;28;20068;-78
2022/10/18 18:31:06;;;;;;;8.65;3.22;;;;;;;13.00;63.86;101667.44;10486830;28;20499;-77
2022/10/18 18:36:09;;;;;;;8.10;3.20;;;;;;;12.81;64.19;101667.91;10484065;28;20049;-77
2022/10/18 18:41:15;;;;;;;9.80;2.67;;;;;;;12.31;65.92;101674.94;10491910;28;20143;-78
2022/10/18 18:52:44;;;;;;;10.65;3.42;;;;;;;12.25;66.18;101672.63;10510852;28;20048;-78
2022/10/18 18:57:49;;;;;;;13.23;3.25;;;;;;;12.36;65.56;101668.25;10514125;28;20047;-79
2022/10/18 19:02:52;;;;;;;11.00;3.20;;;;;;;12.34;65.33;101678.31;10504717;28;20125;-79
2022/10/18 19:07:58;;;;;;;6.90;2.85;;;;;;;12.43;65.20;101679.50;10485653;28;20045;-80
2022/10/18 19:13:01;;;;;;;10.38;3.67;;;;;;;12.50;64.90;101679.94;10481767;28;20052;-78
2022/10/18 19:18:04;;;;;;;8.48;2.92;;;;;;;12.29;65.19;101682.28;10476897;28;20136;-78
2022/10/18 19:23:09;;;;;;;10.35;3.67;;;;;;;12.17;65.78;101673.13;10485251;28;20056;-79
2022/10/18 19:28:11;;;;;;;10.95;3.70;;;;;;;12.28;65.64;101686.78;10479070;28;20125;-78
2022/10/18 19:33:19;;;;;;;7.05;2.63;;;;;;;12.00;66.07;101689.56;10492590;28;20047;-80
2022/10/18 19:38:33;;;;;;;9.02;2.47;;;;;;;11.69;68.02;101697.84;10491552;28;20734;-79
2022/10/18 19:43:37;;;;;;;8.65;2.85;;;;;;;11.54;68.80;101698.81;10468685;28;20055;-79
2022/10/18 19:48:39;;;;;;;10.20;3.10;;;;;;;11.63;68.79;101698.25;10469906;28;20175;-79
2022/10/18 19:53:44;;;;;;;14.88;4.07;;;;;;;11.71;68.53;101701.31;10480626;28;20053;-79
2022/10/18 19:58:47;;;;;;;8.50;3.13;;;;;;;11.69;67.94;101700.53;10483072;28;20029;-79
2022/10/18 20:03:50;;;;;;;5.82;3.13;;;;;;;11.32;69.69;101704.72;10495224;28;20108;-78
2022/10/18 20:08:55;;;;;;;;;;;;;;;11.33;69.97;101705.59;10466023;28;20775;-78
2022/10/18 20:13:59;;;;;;;9.88;3.15;;;;;;;11.39;69.82;101700.69;10478504;28;19924;-77
2022/10/18 20:19:03;;;;;;;12.50;2.65;;;;;;;11.34;69.86;101699.25;10469407;28;20441;-78
2022/10/18 20:24:08;;;;;;;13.57;3.42;;;;;;;11.42;70.04;101705.00;10465287;28;20041;-79
2022/10/18 20:29:11;;;;;;;17.83;3.67;;;;;;;11.34;70.03;101700.09;10458277;28;20068;-78
2022/10/18 20:34:13;;;;;;;6.57;2.97;;;;;;;11.31;69.82;101707.50;10503303;28;20044;-79
2022/10/18 20:39:18;;;;;;;;;;;;;;;11.06;70.72;101703.63;10498193;28;20071;-77
2022/10/18 20:44:21;;;;;;;13.30;3.88;;;;;;;10.98;70.88;101704.13;10488136;28;19979;-78
2022/10/18 20:49:24;;;;;;;8.80;4.15;;;;;;;10.92;70.97;101703.63;10487982;28;20064;-80
2022/10/18 20:54:28;;;;;;;7.25;3.38;;;;;;;10.93;70.58;101706.22;10465291;28;20157;-77
2022/10/18 20:59:31;;;;;;;10.98;4.60;;;;;;;10.81;70.08;101721.28;10462229;28;20037;-78
2022/10/18 21:04:34;;;;;;;11.77;4.90;;;;;;;10.74;69.87;101719.06;10457091;28;20059;-78
2022/10/18 21:09:41;;;;;;;11.88;4.57;;;;;;;10.76;69.93;101727.91;10468808;28;20048;-78
2022/10/18 21:14:44;;;;;;;12.05;4.03;;;;;;;10.79;70.20;101720.50;10469371;28;20160;-78
2022/10/18 21:19:47;;;;;;;;;;;;;;;10.72;69.54;101715.59;10469563;28;20056;-78
2022/10/18 21:24:51;;;;;;;10.98;5.28;;;;;;;10.49;70.25;101715.16;10473760;28;19925;-78
2022/10/18 21:29:54;;;;;;;15.32;4.82;;;;;;;10.29;72.48;101710.13;10491271;28;20068;-78
2022/10/18 21:34:56;;;;;;;;;;;;;;;10.02;74.16;101717.94;10468166;28;20048;-79
2022/10/18 21:40:01;;;;;;;12.10;5.18;;;;;;;9.73;75.45;101728.47;10461291;28;20015;-79
2022/10/18 21:45:04;;;;;;;14.85;5.32;;;;;;;9.54;76.15;101733.13;10459792;28;20655;-78
2022/10/18 21:50:08;;;;;;;11.82;6.00;;;;;;;9.48;76.89;101735.22;10465005;28;20543;-77
2022/10/18 21:55:12;;;;;;;14.45;5.13;;;;;;;9.49;76.79;101725.38;10479677;22;20099;-79
2022/10/18 22:00:16;;;;;;;9.75;5.68;;;;;;;9.62;76.41;101725.53;10434187;28;20107;-77
2022/10/18 22:05:19;;;;;;;9.20;5.28;;;;;;;9.62;76.10;101726.41;10439715;28;20051;-77
2022/10/18 22:10:23;;;;;;;12.23;5.95;;;;;;;9.60;76.26;101722.06;10443741;28;20033;-78
2022/10/18 22:15:26;;;;;;;13.23;6.15;;;;;;;9.63;76.06;101716.56;10442743;28;20068;-77
2022/10/18 22:20:28;;;;;;;9.90;4.75;;;;;;;9.86;75.72;101705.41;10425305;28;20045;-77
2022/10/18 22:25:34;;;;;;;;;;;;;;;9.98;74.70;101705.66;10440318;28;20045;-77
2022/10/18 22:30:37;;;;;;;14.90;5.30;;;;;;;9.91;73.26;101697.09;10418772;28;19927;-77
2022/10/18 22:35:40;;;;;;;8.23;4.75;;;;;;;9.86;72.71;101699.16;10424408;28;20071;-77
2022/10/18 22:40:44;;;;;;;;;;;;;;;9.78;72.47;101704.94;10424142;28;20504;-77
2022/10/18 22:45:47;;;;;;;10.93;4.85;;;;;;;9.70;72.15;101696.44;10431227;28;19925;-77
2022/10/18 22:50:50;;;;;;;8.57;4.80;;;;;;;9.63;71.99;101698.63;10434936;28;20037;-78
2022/10/18 22:55:54;;;;;;;;;;;;;;;9.57;72.09;101690.03;10436850;28;20092;-76
2022/10/18 23:01:01;;;;;;;12.27;5.05;;;;;;;9.61;72.18;101683.56;10417449;28;20012;-76
2022/10/18 23:06:05;;;;;;;12.40;4.88;;;;;;;9.59;72.13;101685.47;10435131;28;20135;-76
2022/10/18 23:11:09;;;;;;;9.98;5.10;;;;;;;9.59;72.35;101685.47;10449039;28;20045;-76
2022/10/18 23:16:12;;;;;;;10.88;6.25;;;;;;;9.65;72.35;101683.31;10457725;28;20057;-77
2022/10/18 23:21:15;;;;;;;;;;;;;;;9.44;73.41;101696.09;10440616;28;20174;-77
2022/10/18 23:26:21;;;;;;;15.40;6.60;;;;;;;9.20;75.49;101694.78;10440862;28;20028;-77